sensor_id;sensor_type;location;lat;lon;timestamp;temperature;humidity
24326;DHT22;12448;45.532;5.290;2022-08-11T00:00:10;27.20;40.30
24326;DHT22;12448;45.532;5.290;2022-08-11T00:02:42;27.20;40.40
24326;DHT22;12448;45.532;5.290;2022-08-11T00:05:19;27.20;40.40
24326;DHT22;12448;45.532;5.290;2022-08-11T00:07:46;27.20;40.60
24326;DHT22;12448;45.532;5.290;2022-08-11T00:10:17;27.10;40.50
24326;DHT22;12448;45.532;5.290;2022-08-11T00:12:59;27.10;40.60
24326;DHT22;12448;45.532;5.290;2022-08-11T00:15:37;27.10;40.50
24326;DHT22;12448;45.532;5.290;2022-08-11T00:18:03;27.10;40.50
24326;DHT22;12448;45.532;5.290;2022-08-11T00:20:32;27.10;40.50
24326;DHT22;12448;45.532;5.290;2022-08-11T00:23:05;27.10;40.60
24326;DHT22;12448;45.532;5.290;2022-08-11T00:25:37;27.10;40.70
24326;DHT22;12448;45.532;5.290;2022-08-11T00:28:04;27.10;41.30
24326;DHT22;12448;45.532;5.290;2022-08-11T00:30:47;27.10;40.80
24326;DHT22;12448;45.532;5.290;2022-08-11T00:33:14;27.00;40.90
24326;DHT22;12448;45.532;5.290;2022-08-11T00:35:41;27.00;41.00
24326;DHT22;12448;45.532;5.290;2022-08-11T00:38:09;27.00;41.10
24326;DHT22;12448;45.532;5.290;2022-08-11T00:46:08;26.90;41.30
24326;DHT22;12448;45.532;5.290;2022-08-11T00:54:35;26.90;41.50
24326;DHT22;12448;45.532;5.290;2022-08-11T01:00:03;26.90;41.80
24326;DHT22;12448;45.532;5.290;2022-08-11T01:23:01;26.80;41.50
24326;DHT22;12448;45.532;5.290;2022-08-11T01:27:48;26.70;41.60
24326;DHT22;12448;45.532;5.290;2022-08-11T01:30:46;26.70;41.60
24326;DHT22;12448;45.532;5.290;2022-08-11T01:45:06;26.50;41.90
24326;DHT22;12448;45.532;5.290;2022-08-11T01:47:51;26.40;41.90
24326;DHT22;12448;45.532;5.290;2022-08-11T01:51:07;26.40;42.00
24326;DHT22;12448;45.532;5.290;2022-08-11T02:12:09;26.10;42.60
24326;DHT22;12448;45.532;5.290;2022-08-11T02:15:11;26.10;42.70
24326;DHT22;12448;45.532;5.290;2022-08-11T02:18:10;26.00;43.00
24326;DHT22;12448;45.532;5.290;2022-08-11T02:20:46;25.90;43.10
24326;DHT22;12448;45.532;5.290;2022-08-11T02:23:43;25.90;43.30
24326;DHT22;12448;45.532;5.290;2022-08-11T02:30:01;25.80;43.50
24326;DHT22;12448;45.532;5.290;2022-08-11T02:32:17;25.80;43.60
24326;DHT22;12448;45.532;5.290;2022-08-11T02:35:04;25.80;43.90
24326;DHT22;12448;45.532;5.290;2022-08-11T02:42:52;25.70;44.30
24326;DHT22;12448;45.532;5.290;2022-08-11T02:49:04;25.60;44.80
24326;DHT22;12448;45.532;5.290;2022-08-11T02:52:13;25.60;44.90
24326;DHT22;12448;45.532;5.290;2022-08-11T02:54:56;25.50;45.00
24326;DHT22;12448;45.532;5.290;2022-08-11T02:57:34;25.50;45.00
24326;DHT22;12448;45.532;5.290;2022-08-11T03:00:14;25.40;45.10
24326;DHT22;12448;45.532;5.290;2022-08-11T03:03:29;25.40;45.10
24326;DHT22;12448;45.532;5.290;2022-08-11T03:12:03;25.30;44.70
24326;DHT22;12448;45.532;5.290;2022-08-11T03:18:02;25.30;45.20
24326;DHT22;12448;45.532;5.290;2022-08-11T03:20:50;25.30;45.30
24326;DHT22;12448;45.532;5.290;2022-08-11T03:23:33;25.30;45.20
24326;DHT22;12448;45.532;5.290;2022-08-11T03:26:37;25.20;45.10
24326;DHT22;12448;45.532;5.290;2022-08-11T03:32:18;25.20;44.90
24326;DHT22;12448;45.532;5.290;2022-08-11T03:34:47;25.20;44.60
24326;DHT22;12448;45.532;5.290;2022-08-11T03:43:41;25.10;45.10
24326;DHT22;12448;45.532;5.290;2022-08-11T03:46:09;25.10;45.30
24326;DHT22;12448;45.532;5.290;2022-08-11T03:51:38;24.90;45.80
24326;DHT22;12448;45.532;5.290;2022-08-11T04:25:58;24.50;45.70
24326;DHT22;12448;45.532;5.290;2022-08-11T05:15:19;24.40;46.80
24326;DHT22;12448;45.532;5.290;2022-08-11T05:18:21;24.40;46.90
24326;DHT22;12448;45.532;5.290;2022-08-11T05:21:09;24.50;47.20
24326;DHT22;12448;45.532;5.290;2022-08-11T05:24:10;24.50;47.60
24326;DHT22;12448;45.532;5.290;2022-08-11T05:27:00;24.50;47.60
24326;DHT22;12448;45.532;5.290;2022-08-11T05:29:52;24.50;48.20
24326;DHT22;12448;45.532;5.290;2022-08-11T05:32:44;24.50;48.50
24326;DHT22;12448;45.532;5.290;2022-08-11T05:35:42;24.50;48.40
24326;DHT22;12448;45.532;5.290;2022-08-11T05:38:15;24.60;48.50
24326;DHT22;12448;45.532;5.290;2022-08-11T05:41:02;24.60;48.70
24326;DHT22;12448;45.532;5.290;2022-08-11T05:43:47;24.60;48.20
24326;DHT22;12448;45.532;5.290;2022-08-11T05:46:42;24.70;48.00
24326;DHT22;12448;45.532;5.290;2022-08-11T05:49:29;24.70;48.20
24326;DHT22;12448;45.532;5.290;2022-08-11T05:52:20;24.70;47.80
24326;DHT22;12448;45.532;5.290;2022-08-11T05:55:06;24.70;48.00
24326;DHT22;12448;45.532;5.290;2022-08-11T05:58:00;24.70;48.30
24326;DHT22;12448;45.532;5.290;2022-08-11T06:00:27;24.80;48.60
24326;DHT22;12448;45.532;5.290;2022-08-11T06:02:56;24.80;48.40
24326;DHT22;12448;45.532;5.290;2022-08-11T06:07:57;24.90;49.40
24326;DHT22;12448;45.532;5.290;2022-08-11T06:10:31;24.90;49.10
24326;DHT22;12448;45.532;5.290;2022-08-11T06:12:58;24.90;49.40
24326;DHT22;12448;45.532;5.290;2022-08-11T06:15:26;25.00;49.00
24326;DHT22;12448;45.532;5.290;2022-08-11T06:17:53;25.00;48.70
24326;DHT22;12448;45.532;5.290;2022-08-11T06:20:21;25.10;48.60
24326;DHT22;12448;45.532;5.290;2022-08-11T06:22:55;25.20;48.50
24326;DHT22;12448;45.532;5.290;2022-08-11T06:25:22;25.30;48.20
24326;DHT22;12448;45.532;5.290;2022-08-11T06:27:55;25.30;48.00
24326;DHT22;12448;45.532;5.290;2022-08-11T06:33:02;25.50;47.80
24326;DHT22;12448;45.532;5.290;2022-08-11T06:44:05;25.70;47.80
24326;DHT22;12448;45.532;5.290;2022-08-11T06:46:34;25.80;47.70
24326;DHT22;12448;45.532;5.290;2022-08-11T06:49:08;25.90;47.40
24326;DHT22;12448;45.532;5.290;2022-08-11T06:51:54;25.90;47.30
24326;DHT22;12448;45.532;5.290;2022-08-11T06:54:21;25.90;47.30
24326;DHT22;12448;45.532;5.290;2022-08-11T06:56:48;26.00;47.10
24326;DHT22;12448;45.532;5.290;2022-08-11T06:59:33;26.10;47.10
24326;DHT22;12448;45.532;5.290;2022-08-11T07:02:23;26.10;46.70
24326;DHT22;12448;45.532;5.290;2022-08-11T07:05:20;26.20;46.60
24326;DHT22;12448;45.532;5.290;2022-08-11T07:14:06;26.30;46.40
24326;DHT22;12448;45.532;5.290;2022-08-11T07:16:52;26.30;46.40
24326;DHT22;12448;45.532;5.290;2022-08-11T07:19:29;26.40;46.40
24326;DHT22;12448;45.532;5.290;2022-08-11T07:22:15;26.50;46.70
24326;DHT22;12448;45.532;5.290;2022-08-11T07:25:13;26.50;46.40
24326;DHT22;12448;45.532;5.290;2022-08-11T07:28:25;26.50;46.20
24326;DHT22;12448;45.532;5.290;2022-08-11T07:31:13;26.60;46.10
24326;DHT22;12448;45.532;5.290;2022-08-11T07:33:48;26.60;46.20
24326;DHT22;12448;45.532;5.290;2022-08-11T07:36:16;26.60;46.30
24326;DHT22;12448;45.532;5.290;2022-08-11T07:38:46;26.70;46.30
24326;DHT22;12448;45.532;5.290;2022-08-11T07:41:18;26.70;46.20
24326;DHT22;12448;45.532;5.290;2022-08-11T07:43:46;26.70;46.00
24326;DHT22;12448;45.532;5.290;2022-08-11T07:46:16;26.80;45.80
24326;DHT22;12448;45.532;5.290;2022-08-11T07:49:02;26.80;45.40
24326;DHT22;12448;45.532;5.290;2022-08-11T07:51:48;26.80;45.50
24326;DHT22;12448;45.532;5.290;2022-08-11T07:54:34;26.80;45.40
24326;DHT22;12448;45.532;5.290;2022-08-11T07:57:02;26.90;45.30
24326;DHT22;12448;45.532;5.290;2022-08-11T07:59:46;26.90;45.10
24326;DHT22;12448;45.532;5.290;2022-08-11T08:02:31;26.90;44.90
24326;DHT22;12448;45.532;5.290;2022-08-11T08:05:17;27.00;44.90
24326;DHT22;12448;45.532;5.290;2022-08-11T08:08:01;27.00;44.90
24326;DHT22;12448;45.532;5.290;2022-08-11T08:10:46;27.00;44.80
24326;DHT22;12448;45.532;5.290;2022-08-11T08:13:32;27.10;44.70
24326;DHT22;12448;45.532;5.290;2022-08-11T08:16:18;27.20;44.90
24326;DHT22;12448;45.532;5.290;2022-08-11T08:19:03;27.20;45.30
24326;DHT22;12448;45.532;5.290;2022-08-11T08:21:29;27.20;44.30
24326;DHT22;12448;45.532;5.290;2022-08-11T08:23:57;27.30;44.10
24326;DHT22;12448;45.532;5.290;2022-08-11T08:26:23;27.40;44.00
24326;DHT22;12448;45.532;5.290;2022-08-11T08:29:08;27.40;44.00
24326;DHT22;12448;45.532;5.290;2022-08-11T08:31:53;27.50;44.10
24326;DHT22;12448;45.532;5.290;2022-08-11T08:34:22;27.60;44.10
24326;DHT22;12448;45.532;5.290;2022-08-11T08:36:50;27.60;43.90
24326;DHT22;12448;45.532;5.290;2022-08-11T08:39:20;27.70;43.70
24326;DHT22;12448;45.532;5.290;2022-08-11T08:41:51;27.70;43.80
24326;DHT22;12448;45.532;5.290;2022-08-11T08:44:18;27.80;43.50
24326;DHT22;12448;45.532;5.290;2022-08-11T08:46:51;27.80;43.00
24326;DHT22;12448;45.532;5.290;2022-08-11T08:49:24;27.90;42.90
24326;DHT22;12448;45.532;5.290;2022-08-11T08:51:53;27.90;43.10
24326;DHT22;12448;45.532;5.290;2022-08-11T08:54:43;27.90;43.10
24326;DHT22;12448;45.532;5.290;2022-08-11T08:57:08;28.00;43.60
24326;DHT22;12448;45.532;5.290;2022-08-11T08:59:40;28.00;42.80
24326;DHT22;12448;45.532;5.290;2022-08-11T09:02:07;28.10;42.60
24326;DHT22;12448;45.532;5.290;2022-08-11T09:04:38;28.10;42.60
24326;DHT22;12448;45.532;5.290;2022-08-11T09:07:12;28.20;42.70
24326;DHT22;12448;45.532;5.290;2022-08-11T09:09:50;28.30;42.90
24326;DHT22;12448;45.532;5.290;2022-08-11T09:12:18;28.30;42.80
24326;DHT22;12448;45.532;5.290;2022-08-11T09:14:49;28.30;42.90
24326;DHT22;12448;45.532;5.290;2022-08-11T09:17:44;28.40;42.60
24326;DHT22;12448;45.532;5.290;2022-08-11T09:20:21;28.50;42.50
24326;DHT22;12448;45.532;5.290;2022-08-11T09:22:50;28.50;42.30
24326;DHT22;12448;45.532;5.290;2022-08-11T09:25:34;28.50;42.60
24326;DHT22;12448;45.532;5.290;2022-08-11T09:28:21;28.50;42.60
24326;DHT22;12448;45.532;5.290;2022-08-11T09:30:51;28.60;42.50
24326;DHT22;12448;45.532;5.290;2022-08-11T09:33:21;28.60;42.50
24326;DHT22;12448;45.532;5.290;2022-08-11T09:35:51;28.60;42.40
24326;DHT22;12448;45.532;5.290;2022-08-11T09:38:23;28.70;42.50
24326;DHT22;12448;45.532;5.290;2022-08-11T09:41:10;28.70;42.60
24326;DHT22;12448;45.532;5.290;2022-08-11T09:43:42;28.70;42.60
24326;DHT22;12448;45.532;5.290;2022-08-11T09:46:28;28.80;42.60
24326;DHT22;12448;45.532;5.290;2022-08-11T09:48:57;28.80;42.60
24326;DHT22;12448;45.532;5.290;2022-08-11T09:51:25;28.90;42.30
24326;DHT22;12448;45.532;5.290;2022-08-11T09:53:53;28.90;42.00
24326;DHT22;12448;45.532;5.290;2022-08-11T09:56:22;29.00;41.80
24326;DHT22;12448;45.532;5.290;2022-08-11T09:59:07;29.10;41.90
24326;DHT22;12448;45.532;5.290;2022-08-11T10:01:39;29.10;42.00
24326;DHT22;12448;45.532;5.290;2022-08-11T10:04:14;29.10;41.90
24326;DHT22;12448;45.532;5.290;2022-08-11T10:06:41;29.20;41.60
24326;DHT22;12448;45.532;5.290;2022-08-11T10:09:28;29.20;41.70
24326;DHT22;12448;45.532;5.290;2022-08-11T10:11:58;29.20;41.70
24326;DHT22;12448;45.532;5.290;2022-08-11T10:14:29;29.30;41.90
24326;DHT22;12448;45.532;5.290;2022-08-11T10:17:15;29.40;41.90
24326;DHT22;12448;45.532;5.290;2022-08-11T10:19:44;29.50;41.70
24326;DHT22;12448;45.532;5.290;2022-08-11T10:22:11;29.50;41.50
24326;DHT22;12448;45.532;5.290;2022-08-11T10:24:58;29.60;40.90
24326;DHT22;12448;45.532;5.290;2022-08-11T10:27:42;29.60;40.40
24326;DHT22;12448;45.532;5.290;2022-08-11T10:30:09;29.60;40.10
24326;DHT22;12448;45.532;5.290;2022-08-11T10:32:56;29.60;39.80
24326;DHT22;12448;45.532;5.290;2022-08-11T10:35:42;29.60;39.30
24326;DHT22;12448;45.532;5.290;2022-08-11T10:38:08;29.70;39.70
24326;DHT22;12448;45.532;5.290;2022-08-11T10:40:34;29.70;39.80
24326;DHT22;12448;45.532;5.290;2022-08-11T10:43:02;29.80;39.60
24326;DHT22;12448;45.532;5.290;2022-08-11T10:45:39;29.80;39.30
24326;DHT22;12448;45.532;5.290;2022-08-11T10:48:26;29.90;38.90
24326;DHT22;12448;45.532;5.290;2022-08-11T10:50:53;29.90;39.50
24326;DHT22;12448;45.532;5.290;2022-08-11T10:53:45;30.00;39.00
24326;DHT22;12448;45.532;5.290;2022-08-11T10:56:34;30.00;37.90
24326;DHT22;12448;45.532;5.290;2022-08-11T10:59:18;30.00;38.20
24326;DHT22;12448;45.532;5.290;2022-08-11T11:01:45;30.10;37.90
24326;DHT22;12448;45.532;5.290;2022-08-11T11:04:15;30.20;37.90
24326;DHT22;12448;45.532;5.290;2022-08-11T11:09:33;30.30;38.30
24326;DHT22;12448;45.532;5.290;2022-08-11T11:12:24;30.30;38.00
24326;DHT22;12448;45.532;5.290;2022-08-11T11:15:10;30.40;37.20
24326;DHT22;12448;45.532;5.290;2022-08-11T11:18:29;30.30;36.00
24326;DHT22;12448;45.532;5.290;2022-08-11T11:21:07;30.50;36.10
24326;DHT22;12448;45.532;5.290;2022-08-11T11:23:52;30.50;36.00
24326;DHT22;12448;45.532;5.290;2022-08-11T11:37:48;30.90;35.40
24326;DHT22;12448;45.532;5.290;2022-08-11T11:40:16;31.00;35.40
24326;DHT22;12448;45.532;5.290;2022-08-11T11:42:46;31.00;34.50
24326;DHT22;12448;45.532;5.290;2022-08-11T11:45:21;31.10;33.60
24326;DHT22;12448;45.532;5.290;2022-08-11T11:47:48;31.20;33.30
24326;DHT22;12448;45.532;5.290;2022-08-11T11:50:33;31.30;33.30
24326;DHT22;12448;45.532;5.290;2022-08-11T11:53:06;31.40;32.90
24326;DHT22;12448;45.532;5.290;2022-08-11T11:55:35;31.40;33.00
24326;DHT22;12448;45.532;5.290;2022-08-11T11:58:02;31.50;33.10
24326;DHT22;12448;45.532;5.290;2022-08-11T12:00:47;31.50;33.10
24326;DHT22;12448;45.532;5.290;2022-08-11T12:03:33;31.70;33.40
24326;DHT22;12448;45.532;5.290;2022-08-11T12:05:59;31.90;33.20
24326;DHT22;12448;45.532;5.290;2022-08-11T12:08:25;31.90;32.60
24326;DHT22;12448;45.532;5.290;2022-08-11T12:10:59;31.90;32.40
24326;DHT22;12448;45.532;5.290;2022-08-11T12:13:47;32.00;32.00
24326;DHT22;12448;45.532;5.290;2022-08-11T12:16:16;32.10;32.20
24326;DHT22;12448;45.532;5.290;2022-08-11T12:18:45;32.10;32.30
24326;DHT22;12448;45.532;5.290;2022-08-11T12:24:30;32.30;32.40
24326;DHT22;12448;45.532;5.290;2022-08-11T12:27:34;32.30;32.30
24326;DHT22;12448;45.532;5.290;2022-08-11T12:30:02;32.30;31.20
24326;DHT22;12448;45.532;5.290;2022-08-11T12:32:31;32.30;32.20
24326;DHT22;12448;45.532;5.290;2022-08-11T12:35:00;32.40;32.10
24326;DHT22;12448;45.532;5.290;2022-08-11T12:37:34;32.40;31.80
24326;DHT22;12448;45.532;5.290;2022-08-11T12:40:08;32.50;31.90
24326;DHT22;12448;45.532;5.290;2022-08-11T12:42:53;32.50;31.60
24326;DHT22;12448;45.532;5.290;2022-08-11T12:45:40;32.50;31.40
24326;DHT22;12448;45.532;5.290;2022-08-11T12:48:14;32.60;31.40
24326;DHT22;12448;45.532;5.290;2022-08-11T12:53:57;32.70;31.20
24326;DHT22;12448;45.532;5.290;2022-08-11T12:56:24;32.90;30.70
24326;DHT22;12448;45.532;5.290;2022-08-11T12:59:10;32.80;30.40
24326;DHT22;12448;45.532;5.290;2022-08-11T13:01:55;32.90;30.40
24326;DHT22;12448;45.532;5.290;2022-08-11T13:04:41;32.90;30.30
24326;DHT22;12448;45.532;5.290;2022-08-11T13:07:21;32.90;30.00
24326;DHT22;12448;45.532;5.290;2022-08-11T13:09:47;33.00;29.90
24326;DHT22;12448;45.532;5.290;2022-08-11T13:12:15;33.00;29.80
24326;DHT22;12448;45.532;5.290;2022-08-11T13:15:05;33.10;30.00
24326;DHT22;12448;45.532;5.290;2022-08-11T13:17:32;33.10;29.70
24326;DHT22;12448;45.532;5.290;2022-08-11T13:19:59;33.10;29.60
24326;DHT22;12448;45.532;5.290;2022-08-11T13:22:27;33.20;29.40
24326;DHT22;12448;45.532;5.290;2022-08-11T13:24:54;33.20;28.90
24326;DHT22;12448;45.532;5.290;2022-08-11T13:27:22;33.10;28.70
24326;DHT22;12448;45.532;5.290;2022-08-11T13:29:50;33.20;29.20
24326;DHT22;12448;45.532;5.290;2022-08-11T13:32:36;33.20;29.00
24326;DHT22;12448;45.532;5.290;2022-08-11T13:35:03;33.30;28.90
24326;DHT22;12448;45.532;5.290;2022-08-11T13:37:29;33.30;28.20
24326;DHT22;12448;45.532;5.290;2022-08-11T13:39:55;33.30;28.30
24326;DHT22;12448;45.532;5.290;2022-08-11T13:42:23;33.40;28.40
24326;DHT22;12448;45.532;5.290;2022-08-11T13:44:49;33.50;28.00
24326;DHT22;12448;45.532;5.290;2022-08-11T13:47:15;33.50;27.90
24326;DHT22;12448;45.532;5.290;2022-08-11T13:49:43;33.50;27.70
24326;DHT22;12448;45.532;5.290;2022-08-11T13:52:14;33.60;28.00
24326;DHT22;12448;45.532;5.290;2022-08-11T13:54:42;33.60;27.80
24326;DHT22;12448;45.532;5.290;2022-08-11T13:57:10;33.70;27.70
24326;DHT22;12448;45.532;5.290;2022-08-11T13:59:37;33.70;27.80
24326;DHT22;12448;45.532;5.290;2022-08-11T14:02:05;33.70;27.60
24326;DHT22;12448;45.532;5.290;2022-08-11T14:04:44;33.70;27.60
24326;DHT22;12448;45.532;5.290;2022-08-11T14:07:13;33.70;27.90
24326;DHT22;12448;45.532;5.290;2022-08-11T14:09:43;33.70;27.80
24326;DHT22;12448;45.532;5.290;2022-08-11T14:12:15;33.60;27.60
24326;DHT22;12448;45.532;5.290;2022-08-11T14:15:11;33.70;27.50
24326;DHT22;12448;45.532;5.290;2022-08-11T14:17:39;33.70;27.50
24326;DHT22;12448;45.532;5.290;2022-08-11T14:20:10;33.70;27.80
24326;DHT22;12448;45.532;5.290;2022-08-11T14:22:40;33.80;27.60
24326;DHT22;12448;45.532;5.290;2022-08-11T14:25:08;33.90;27.30
24326;DHT22;12448;45.532;5.290;2022-08-11T14:27:35;34.00;27.50
24326;DHT22;12448;45.532;5.290;2022-08-11T14:30:02;34.00;27.30
24326;DHT22;12448;45.532;5.290;2022-08-11T14:32:29;34.10;27.30
24326;DHT22;12448;45.532;5.290;2022-08-11T14:34:55;34.00;25.80
24326;DHT22;12448;45.532;5.290;2022-08-11T14:37:24;34.00;25.30
24326;DHT22;12448;45.532;5.290;2022-08-11T14:39:56;33.80;25.30
24326;DHT22;12448;45.532;5.290;2022-08-11T14:42:23;33.80;25.90
24326;DHT22;12448;45.532;5.290;2022-08-11T14:45:15;33.80;25.80
24326;DHT22;12448;45.532;5.290;2022-08-11T14:48:03;33.70;26.40
24326;DHT22;12448;45.532;5.290;2022-08-11T14:50:31;33.60;26.60
24326;DHT22;12448;45.532;5.290;2022-08-11T14:52:59;33.70;26.90
24326;DHT22;12448;45.532;5.290;2022-08-11T14:55:28;33.70;26.60
24326;DHT22;12448;45.532;5.290;2022-08-11T14:58:19;33.80;26.70
24326;DHT22;12448;45.532;5.290;2022-08-11T15:00:46;33.80;26.70
24326;DHT22;12448;45.532;5.290;2022-08-11T15:03:14;33.80;26.30
24326;DHT22;12448;45.532;5.290;2022-08-11T15:05:47;33.90;26.70
24326;DHT22;12448;45.532;5.290;2022-08-11T15:08:14;33.90;26.50
24326;DHT22;12448;45.532;5.290;2022-08-11T15:10:41;34.00;26.70
24326;DHT22;12448;45.532;5.290;2022-08-11T15:13:07;34.00;26.80
24326;DHT22;12448;45.532;5.290;2022-08-11T15:15:34;34.00;26.60
24326;DHT22;12448;45.532;5.290;2022-08-11T15:18:23;34.00;26.30
24326;DHT22;12448;45.532;5.290;2022-08-11T15:20:49;34.00;26.90
24326;DHT22;12448;45.532;5.290;2022-08-11T15:23:34;34.00;26.70
24326;DHT22;12448;45.532;5.290;2022-08-11T15:26:27;34.10;26.60
24326;DHT22;12448;45.532;5.290;2022-08-11T15:29:14;34.20;26.80
24326;DHT22;12448;45.532;5.290;2022-08-11T15:32:02;34.20;26.90
24326;DHT22;12448;45.532;5.290;2022-08-11T15:34:50;34.20;26.80
24326;DHT22;12448;45.532;5.290;2022-08-11T15:37:37;34.20;26.70
24326;DHT22;12448;45.532;5.290;2022-08-11T15:40:19;34.20;26.60
24326;DHT22;12448;45.532;5.290;2022-08-11T15:43:15;34.20;25.80
24326;DHT22;12448;45.532;5.290;2022-08-11T15:46:07;34.00;26.30
24326;DHT22;12448;45.532;5.290;2022-08-11T15:48:42;34.10;26.20
24326;DHT22;12448;45.532;5.290;2022-08-11T15:51:16;34.10;26.00
24326;DHT22;12448;45.532;5.290;2022-08-11T15:53:52;34.00;25.90
24326;DHT22;12448;45.532;5.290;2022-08-11T15:56:22;34.00;26.00
24326;DHT22;12448;45.532;5.290;2022-08-11T15:58:50;34.00;26.10
24326;DHT22;12448;45.532;5.290;2022-08-11T16:01:38;34.00;25.80
24326;DHT22;12448;45.532;5.290;2022-08-11T16:04:25;34.00;26.10
24326;DHT22;12448;45.532;5.290;2022-08-11T16:06:59;34.00;26.00
24326;DHT22;12448;45.532;5.290;2022-08-11T16:09:33;34.00;26.00
24326;DHT22;12448;45.532;5.290;2022-08-11T16:12:13;33.90;26.00
24326;DHT22;12448;45.532;5.290;2022-08-11T16:14:46;33.90;26.80
24326;DHT22;12448;45.532;5.290;2022-08-11T16:17:34;33.90;27.20
24326;DHT22;12448;45.532;5.290;2022-08-11T16:20:03;33.90;26.90
24326;DHT22;12448;45.532;5.290;2022-08-11T16:22:32;33.90;26.60
24326;DHT22;12448;45.532;5.290;2022-08-11T16:25:10;33.90;26.60
24326;DHT22;12448;45.532;5.290;2022-08-11T16:27:41;33.90;26.70
24326;DHT22;12448;45.532;5.290;2022-08-11T16:30:08;34.00;26.70
24326;DHT22;12448;45.532;5.290;2022-08-11T16:32:38;34.00;26.50
24326;DHT22;12448;45.532;5.290;2022-08-11T16:35:32;34.00;26.30
24326;DHT22;12448;45.532;5.290;2022-08-11T16:38:24;34.00;26.30
24326;DHT22;12448;45.532;5.290;2022-08-11T16:41:08;33.90;26.40
24326;DHT22;12448;45.532;5.290;2022-08-11T16:43:45;33.90;26.30
24326;DHT22;12448;45.532;5.290;2022-08-11T16:46:31;33.90;26.40
24326;DHT22;12448;45.532;5.290;2022-08-11T16:49:21;33.70;26.70
24326;DHT22;12448;45.532;5.290;2022-08-11T16:52:09;33.70;26.70
24326;DHT22;12448;45.532;5.290;2022-08-11T16:54:47;33.80;26.60
24326;DHT22;12448;45.532;5.290;2022-08-11T16:57:16;33.70;27.30
24326;DHT22;12448;45.532;5.290;2022-08-11T17:00:06;33.70;27.40
24326;DHT22;12448;45.532;5.290;2022-08-11T17:02:34;33.70;27.30
24326;DHT22;12448;45.532;5.290;2022-08-11T17:05:22;33.60;27.50
24326;DHT22;12448;45.532;5.290;2022-08-11T17:08:49;33.50;27.50
24326;DHT22;12448;45.532;5.290;2022-08-11T17:11:39;33.60;27.30
24326;DHT22;12448;45.532;5.290;2022-08-11T17:14:34;33.50;27.00
24326;DHT22;12448;45.532;5.290;2022-08-11T17:17:06;33.50;27.10
24326;DHT22;12448;45.532;5.290;2022-08-11T17:19:37;33.40;26.90
24326;DHT22;12448;45.532;5.290;2022-08-11T17:22:06;33.50;27.20
24326;DHT22;12448;45.532;5.290;2022-08-11T17:24:53;33.50;27.40
24326;DHT22;12448;45.532;5.290;2022-08-11T17:27:22;33.60;27.70
24326;DHT22;12448;45.532;5.290;2022-08-11T17:29:55;33.70;27.40
24326;DHT22;12448;45.532;5.290;2022-08-11T17:32:37;33.80;27.30
24326;DHT22;12448;45.532;5.290;2022-08-11T17:35:28;33.90;27.60
24326;DHT22;12448;45.532;5.290;2022-08-11T17:38:16;33.90;27.80
24326;DHT22;12448;45.532;5.290;2022-08-11T17:40:46;33.90;27.90
24326;DHT22;12448;45.532;5.290;2022-08-11T17:43:31;34.00;28.10
24326;DHT22;12448;45.532;5.290;2022-08-11T17:46:16;34.00;28.00
24326;DHT22;12448;45.532;5.290;2022-08-11T17:49:03;34.00;28.40
24326;DHT22;12448;45.532;5.290;2022-08-11T17:51:32;34.00;28.40
24326;DHT22;12448;45.532;5.290;2022-08-11T17:54:17;34.00;28.20
24326;DHT22;12448;45.532;5.290;2022-08-11T17:57:01;34.00;28.10
24326;DHT22;12448;45.532;5.290;2022-08-11T17:59:47;34.00;28.20
24326;DHT22;12448;45.532;5.290;2022-08-11T18:05:05;33.80;28.40
24326;DHT22;12448;45.532;5.290;2022-08-11T18:07:31;33.70;28.70
24326;DHT22;12448;45.532;5.290;2022-08-11T18:10:16;33.50;28.60
24326;DHT22;12448;45.532;5.290;2022-08-11T18:13:01;33.40;28.60
24326;DHT22;12448;45.532;5.290;2022-08-11T18:15:48;33.00;28.20
24326;DHT22;12448;45.532;5.290;2022-08-11T18:18:33;33.10;28.80
24326;DHT22;12448;45.532;5.290;2022-08-11T18:21:18;33.00;29.20
24326;DHT22;12448;45.532;5.290;2022-08-11T18:24:10;33.00;29.60
24326;DHT22;12448;45.532;5.290;2022-08-11T18:26:58;32.90;29.90
24326;DHT22;12448;45.532;5.290;2022-08-11T18:29:48;32.80;30.30
24326;DHT22;12448;45.532;5.290;2022-08-11T18:32:35;32.70;31.00
24326;DHT22;12448;45.532;5.290;2022-08-11T18:35:22;32.60;31.20
24326;DHT22;12448;45.532;5.290;2022-08-11T18:38:09;32.40;31.70
24326;DHT22;12448;45.532;5.290;2022-08-11T18:40:54;32.30;32.10
24326;DHT22;12448;45.532;5.290;2022-08-11T18:43:47;32.20;32.20
24326;DHT22;12448;45.532;5.290;2022-08-11T18:46:37;32.10;31.80
24326;DHT22;12448;45.532;5.290;2022-08-11T18:49:26;32.00;33.30
24326;DHT22;12448;45.532;5.290;2022-08-11T18:52:13;31.90;32.90
24326;DHT22;12448;45.532;5.290;2022-08-11T18:55:00;31.90;32.90
24326;DHT22;12448;45.532;5.290;2022-08-11T18:57:47;31.80;33.20
24326;DHT22;12448;45.532;5.290;2022-08-11T19:00:35;31.70;33.60
24326;DHT22;12448;45.532;5.290;2022-08-11T19:03:20;31.70;33.60
24326;DHT22;12448;45.532;5.290;2022-08-11T19:06:06;31.60;33.50
24326;DHT22;12448;45.532;5.290;2022-08-11T19:08:56;31.60;33.70
24326;DHT22;12448;45.532;5.290;2022-08-11T19:11:41;31.40;33.20
24326;DHT22;12448;45.532;5.290;2022-08-11T19:14:28;31.10;32.90
24326;DHT22;12448;45.532;5.290;2022-08-11T19:17:15;31.00;32.90
24326;DHT22;12448;45.532;5.290;2022-08-11T19:20:02;30.80;33.10
24326;DHT22;12448;45.532;5.290;2022-08-11T19:22:53;30.80;33.60
24326;DHT22;12448;45.532;5.290;2022-08-11T19:25:38;30.70;33.60
24326;DHT22;12448;45.532;5.290;2022-08-11T19:28:23;30.70;33.70
24326;DHT22;12448;45.532;5.290;2022-08-11T19:31:09;30.70;34.00
24326;DHT22;12448;45.532;5.290;2022-08-11T19:33:54;30.60;33.80
24326;DHT22;12448;45.532;5.290;2022-08-11T19:36:40;30.60;34.30
24326;DHT22;12448;45.532;5.290;2022-08-11T19:39:29;30.60;34.00
24326;DHT22;12448;45.532;5.290;2022-08-11T19:42:14;30.60;33.90
24326;DHT22;12448;45.532;5.290;2022-08-11T19:44:59;30.50;34.30
24326;DHT22;12448;45.532;5.290;2022-08-11T19:47:45;30.40;34.10
24326;DHT22;12448;45.532;5.290;2022-08-11T19:50:32;30.40;34.10
24326;DHT22;12448;45.532;5.290;2022-08-11T19:53:18;30.30;34.20
24326;DHT22;12448;45.532;5.290;2022-08-11T19:56:04;30.30;34.30
24326;DHT22;12448;45.532;5.290;2022-08-11T19:58:49;30.30;34.50
24326;DHT22;12448;45.532;5.290;2022-08-11T20:01:34;30.30;34.90
24326;DHT22;12448;45.532;5.290;2022-08-11T20:04:18;30.30;35.20
24326;DHT22;12448;45.532;5.290;2022-08-11T20:07:02;30.30;35.40
24326;DHT22;12448;45.532;5.290;2022-08-11T20:09:48;30.30;35.50
24326;DHT22;12448;45.532;5.290;2022-08-11T20:12:35;30.30;35.70
24326;DHT22;12448;45.532;5.290;2022-08-11T20:15:21;30.30;35.80
24326;DHT22;12448;45.532;5.290;2022-08-11T20:18:07;30.20;35.90
24326;DHT22;12448;45.532;5.290;2022-08-11T20:20:54;30.20;36.10
24326;DHT22;12448;45.532;5.290;2022-08-11T20:23:41;30.20;36.30